Latest Weather Observations for Fort Denison

IDN60901

Issued at 7:01 pm EST Monday 10 August 2020 (issued every 10 minutes, with the page automatically refreshed every 10 minutes)

About weather observations | Map of Sydney area stations | Latest observations for Sydney area | Other Formats
Station Details ID: 066022 Name: FORT DENISON Lat: -33.86 Lon: 151.23 Height: 5.0 m
Data from the previous 72 hours. | See also: Recent months for locations in New South Wales
Date/Time
EST
Temp
°C
App
Temp
°C
Dew
Point
°C
Rel
Hum
%
Delta-T
°C
Wind Press
QNH
hPa
Press
MSL
hPa
Rain since
9am
mm
Dir  Spd
km/h
Gust
km/h
Spd
kts
Gust
kts
10/07:00pm - - - - - SW 19 28 10 15 - - -
10/06:30pm - - - - - SSW 17 26 9 14 - - -
10/06:00pm - - - - - S 13 24 7 13 - - -
10/05:30pm - - - - - SSW 17 28 9 15 - - -
10/05:00pm - - - - - SSW 6 28 3 15 - - -
10/04:30pm - - - - - SSW 6 26 3 14 - - -
10/04:00pm - - - - - SSW 9 33 5 18 - - -
10/03:30pm - - - - - SSW 13 32 7 17 - - -
10/03:00pm - - - - - SSW 15 41 8 22 - - -
10/02:30pm - - - - - S 15 39 8 21 - - -
10/02:00pm - - - - - SSW 9 30 5 16 - - -
10/01:30pm - - - - - SSW 15 37 8 20 - - -
10/01:00pm - - - - - SSW 13 33 7 18 - - -
10/12:30pm - - - - - SSW 15 52 8 28 - - -
10/12:00pm - - - - - S 32 57 17 31 - - -
10/11:30am - - - - - SSE 35 57 19 31 - - -
10/11:07am - - - - - SSE 39 61 21 33 - - -
10/11:00am - - - - - SSE 37 54 20 29 - - -
10/10:30am - - - - - SSE 33 52 18 28 - - -
10/10:04am - - - - - SSE 35 54 19 29 - - -
10/10:00am - - - - - SSE 41 54 22 29 - - -
10/09:30am - - - - - SSE 35 67 19 36 - - -
10/09:00am - - - - - SSE 39 59 21 32 - - -
10/08:30am - - - - - SSE 39 63 21 34 - - -
10/08:00am - - - - - SSE 30 48 16 26 - - -
10/07:30am - - - - - SSE 39 63 21 34 - - -
10/07:00am - - - - - SSE 43 63 23 34 - - -
10/06:39am - - - - - SSE 43 74 23 40 - - -
10/06:30am - - - - - S 33 56 18 30 - - -
10/06:00am - - - - - SSE 37 56 20 30 - - -
10/05:33am - - - - - SSE 41 59 22 32 - - -
10/05:30am - - - - - SSE 39 56 21 30 - - -
10/05:00am - - - - - SSE 37 56 20 30 - - -
10/04:30am - - - - - SSE 35 65 19 35 - - -
10/04:20am - - - - - SSE 39 57 21 31 - - -
10/04:00am - - - - - SSE 43 57 23 31 - - -
10/03:30am - - - - - SSE 48 72 26 39 - - -
10/03:02am - - - - - SSE 44 67 24 36 - - -
10/03:00am - - - - - SSE 44 67 24 36 - - -
10/02:35am - - - - - SSE 32 50 17 27 - - -
10/02:30am - - - - - SSE 32 44 17 24 - - -
10/02:00am - - - - - SSE 35 54 19 29 - - -
10/01:30am - - - - - SSE 33 59 18 32 - - -
10/01:21am - - - - - SSE 30 48 16 26 - - -
10/01:00am - - - - - SSE 30 44 16 24 - - -
10/12:33am - - - - - SSE 30 48 16 26 - - -
10/12:30am - - - - - SSE 30 43 16 23 - - -
10/12:09am - - - - - SSE 28 46 15 25 - - -
10/12:00am - - - - - SSE 26 44 14 24 - - -
 
Date/Time
EST
Temp
°C
App
Temp
°C
Dew
Point
°C
Rel
Hum
%
Delta-T
°C
Wind Press
QNH
hPa
Press
MSL
hPa
Rain since
9am
mm
Dir  Spd
km/h
Gust
km/h
Spd
kts
Gust
kts
09/11:30pm - - - - - SSE 20 30 11 16 - - -
09/11:00pm - - - - - SE 13 22 7 12 - - -
09/10:30pm - - - - - SE 15 32 8 17 - - -
09/10:00pm - - - - - SE 15 24 8 13 - - -
09/09:30pm - - - - - SE 26 35 14 19 - - -
09/09:00pm - - - - - SSE 22 32 12 17 - - -
09/08:30pm - - - - - ESE 24 30 13 16 - - -
09/08:00pm - - - - - E 9 26 5 14 - - -
09/07:30pm - - - - - W 19 32 10 17 - - -
09/07:10pm - - - - - WNW 32 50 17 27 - - -
09/07:00pm - - - - - WNW 28 43 15 23 - - -
09/06:30pm - - - - - NW 33 57 18 31 - - -
09/06:10pm - - - - - NW 32 48 17 26 - - -
09/06:00pm - - - - - NW 26 41 14 22 - - -
09/05:30pm - - - - - WNW 26 33 14 18 - - -
09/05:00pm - - - - - W 26 35 14 19 - - -
09/04:30pm - - - - - W 24 39 13 21 - - -
09/04:00pm - - - - - WNW 24 37 13 20 - - -
09/03:30pm - - - - - W 26 33 14 18 - - -
09/03:00pm - - - - - W 30 43 16 23 - - -
09/02:30pm - - - - - W 22 32 12 17 - - -
09/02:00pm - - - - - W 24 39 13 21 - - -
09/01:30pm - - - - - WNW 26 32 14 17 - - -
09/01:00pm - - - - - WSW 22 35 12 19 - - -
09/12:30pm - - - - - WSW 24 32 13 17 - - -
09/12:00pm - - - - - WSW 22 30 12 16 - - -
09/11:30am - - - - - W 24 33 13 18 - - -
09/11:00am - - - - - W 26 35 14 19 - - -
09/10:30am - - - - - W 22 28 12 15 - - -
09/10:00am - - - - - W 26 32 14 17 - - -
09/09:30am - - - - - W 24 32 13 17 - - -
09/09:00am - - - - - W 22 28 12 15 - - -
09/08:30am - - - - - W 20 26 11 14 - - -
09/08:00am - - - - - W 20 28 11 15 - - -
09/07:30am - - - - - W 13 17 7 9 - - -
09/07:00am - - - - - W 19 24 10 13 - - -
09/06:30am - - - - - W 15 19 8 10 - - -
09/06:00am - - - - - WNW 11 15 6 8 - - -
09/05:30am - - - - - W 15 20 8 11 - - -
09/05:00am - - - - - W 19 24 10 13 - - -
09/04:30am - - - - - W 19 24 10 13 - - -
09/04:00am - - - - - WNW 11 17 6 9 - - -
09/03:30am - - - - - WNW 9 13 5 7 - - -
09/03:00am - - - - - WNW 9 15 5 8 - - -
09/02:30am - - - - - WNW 11 17 6 9 - - -
09/02:00am - - - - - WNW 13 20 7 11 - - -
09/01:30am - - - - - W 17 20 9 11 - - -
09/01:00am - - - - - W 17 24 9 13 - - -
09/12:30am - - - - - W 19 24 10 13 - - -
09/12:00am - - - - - W 19 24 10 13 - - -
 
Date/Time
EST
Temp
°C
App
Temp
°C
Dew
Point
°C
Rel
Hum
%
Delta-T
°C
Wind Press
QNH
hPa
Press
MSL
hPa
Rain since
9am
mm
Dir  Spd
km/h
Gust
km/h
Spd
kts
Gust
kts
08/11:30pm - - - - - W 24 32 13 17 - - -
08/11:00pm - - - - - W 28 37 15 20 - - -
08/10:30pm - - - - - W 26 39 14 21 - - -
08/10:00pm - - - - - W 24 37 13 20 - - -
08/09:30pm - - - - - WNW 19 30 10 16 - - -
08/09:00pm - - - - - WNW 15 19 8 10 - - -
08/08:30pm - - - - - W 15 20 8 11 - - -
08/08:00pm - - - - - WNW 24 30 13 16 - - -
08/07:30pm - - - - - N 2 6 1 3 - - -
08/07:00pm - - - - - ENE 6 7 3 4 - - -
08/06:30pm - - - - - NE 6 9 3 5 - - -
08/06:00pm - - - - - NE 6 7 3 4 - - -
08/05:30pm - - - - - ESE 4 4 2 2 - - -
08/05:00pm - - - - - W 2 4 1 2 - - -
08/04:30pm - - - - - WNW 4 4 2 2 - - -
08/04:00pm - - - - - SW 2 7 1 4 - - -
08/03:30pm - - - - - WNW 11 15 6 8 - - -
08/03:00pm - - - - - W 9 11 5 6 - - -
08/02:30pm - - - - - N 9 17 5 9 - - -
08/02:00pm - - - - - ESE 9 15 5 8 - - -
08/01:30pm - - - - - NNW 9 15 5 8 - - -
08/01:00pm - - - - - NW 19 26 10 14 - - -
08/12:30pm - - - - - NW 15 22 8 12 - - -
08/12:00pm - - - - - WNW 17 24 9 13 - - -
08/11:30am - - - - - WNW 13 17 7 9 - - -
08/11:00am - - - - - W 7 11 4 6 - - -
08/10:30am - - - - - NW 9 11 5 6 - - -
08/10:00am - - - - - WNW 17 20 9 11 - - -
08/09:30am - - - - - W 20 26 11 14 - - -
08/09:00am - - - - - W 20 24 11 13 - - -
08/08:30am - - - - - W 15 19 8 10 - - -
08/08:00am - - - - - WNW 17 20 9 11 - - -
08/07:30am - - - - - W 11 15 6 8 - - -
08/07:00am - - - - - WNW 22 24 12 13 - - -
08/06:30am - - - - - W 19 22 10 12 - - -
08/06:00am - - - - - W 13 15 7 8 - - -
08/05:30am - - - - - WNW 13 17 7 9 - - -
08/05:00am - - - - - W 13 15 7 8 - - -
08/04:30am - - - - - WNW 7 13 4 7 - - -
08/04:00am - - - - - W 4 7 2 4 - - -
08/03:30am - - - - - NW 4 6 2 3 - - -
08/03:00am - - - - - WNW 6 7 3 4 - - -
08/02:30am - - - - - WNW 4 6 2 3 - - -
08/02:00am - - - - - W 6 7 3 4 - - -
08/01:30am - - - - - WNW 9 11 5 6 - - -
08/01:00am - - - - - WNW 4 7 2 4 - - -
08/12:30am - - - - - ESE 2 4 1 2 - - -
08/12:00am - - - - - NW 4 6 2 3 - - -
 
Date/Time
EST
Temp
°C
App
Temp
°C
Dew
Point
°C
Rel
Hum
%
Delta-T
°C
Wind Press
QNH
hPa
Press
MSL
hPa
Rain since
9am
mm
Dir  Spd
km/h
Gust
km/h
Spd
kts
Gust
kts
07/11:30pm - - - - - W 6 9 3 5 - - -
07/11:00pm - - - - - WNW 13 15 7 8 - - -
07/10:30pm - - - - - W 11 13 6 7 - - -
07/10:00pm - - - - - W 13 15 7 8 - - -
07/09:30pm - - - - - WNW 13 17 7 9 - - -
07/09:00pm - - - - - W 11 13 6 7 - - -
07/08:30pm - - - - - WNW 15 19 8 10 - - -
07/08:00pm - - - - - W 13 15 7 8 - - -
07/07:30pm - - - - - W 13 17 7 9 - - -

Latest Capital City Observations: Canberra | Sydney | Melbourne | Brisbane | Adelaide | Perth | Hobart | Darwin

Other formats

Comma delimited format used in spreadsheet applications
http://www.bom.gov.au/fwo/IDN60901/IDN60901.94769.axf

JavaScript Object Notation format (JSON) in row-major order
http://www.bom.gov.au/fwo/IDN60901/IDN60901.94769.json

Data quality

Most of these data are generated automatically and are frequently updated. Quality checks on data are not normally performed. It is possible for incorrect values to appear. Refer to information at About Latest Weather Observations and please check the disclaimer before using these data.